Terminal Aerodrome Forecast
Issued by NWS

Home | Current Version | Previous Version | Graphics & Text | Print | Product List | Glossary On
Versions: 1 2 3 4 5 6 7 8 9 10 11 12 13 14 15 16 17
000
FTUS43 KDVN 020520
TAFCID
TAF
KCID 020520Z 0206/0306 19005KT P6SM FEW130
     FM021000 21009KT P6SM SCT080
     FM021400 23015G21KT P6SM SCT080
     FM021700 24018G25KT P6SM SCT080
     FM030000 25011KT P6SM SKC=

USA.gov is the U.S. government's official web portal to all federal, state and local government web resources and services.